Latest Weather Observations for Dalby

IDQ60801

Issued at 11:42 am EST Tuesday 14 July 2020 (issued every 10 minutes, with the page automatically refreshed every 10 minutes)

About weather observations | Map of weather stations | Latest weather observations for QLD | Other Formats
Station Details ID: 041522 Name: DALBY AIRPORT Lat: -27.16 Lon: 151.26 Height: 343.9 m
Data from the previous 72 hours. | See also: Recent months at Dalby
Date/Time
EST
Temp
°C
App
Temp
°C
Dew
Point
°C
Rel
Hum
%
Delta-T
°C
Wind Press
QNH
hPa
Press
MSL
hPa
Rain since
9am
mm
Dir  Spd
km/h
Gust
km/h
Spd
kts
Gust
kts
14/11:30am 12.2 4.4 2.6 52 4.3 WSW 33 46 18 25 1019.9 1019.9 0.0
14/11:00am 12.7 5.4 4.4 57 3.8 WSW 32 43 17 23 1020.1 1020.1 0.0
14/10:30am 11.4 4.4 3.9 60 3.4 WSW 30 39 16 21 1020.4 1020.4 0.0
14/10:00am 10.4 3.8 4.3 66 2.8 WSW 28 35 15 19 1020.7 1020.7 0.0
14/09:30am 9.4 3.6 4.6 72 2.2 WSW 24 32 13 17 1021.1 1021.0 0.0
14/09:00am 8.2 3.2 4.4 77 1.7 WSW 20 26 11 14 1021.0 1020.9 0.0
14/08:30am 7.3 2.4 4.3 81 1.3 WSW 19 24 10 13 1021.2 1021.1 0.0
14/08:00am 6.2 1.6 3.9 85 1.0 WSW 17 20 9 11 1021.2 1021.1 0.0
14/07:30am 4.5 0.9 2.7 88 0.7 W 11 13 6 7 1020.8 1020.8 0.0
14/07:00am 3.5 -0.3 1.9 89 0.6 WSW 11 13 6 7 1020.6 1020.6 0.0
14/06:30am 2.8 -0.4 1.0 88 0.7 WSW 7 9 4 5 1020.4 1020.4 0.0
14/06:00am 3.3 -0.9 1.7 89 0.6 W 13 13 7 7 1020.1 1020.1 0.0
14/05:30am 2.4 -1.6 0.8 89 0.6 WNW 11 15 6 8 1019.6 1019.6 0.0
14/05:00am 2.4 -2.0 0.6 88 0.7 WNW 13 15 7 8 1019.4 1019.4 0.0
14/04:30am 2.8 -1.9 1.0 88 0.7 WNW 15 17 8 9 1019.3 1019.3 0.0
14/04:00am 2.2 -1.8 0.4 88 0.7 NW 11 15 6 8 1019.3 1019.3 0.0
14/03:30am 2.4 -2.0 0.5 87 0.7 NW 13 15 7 8 1019.3 1019.3 0.0
14/03:00am 2.5 -1.2 0.2 85 0.9 NW 9 11 5 6 1019.2 1019.2 0.0
14/02:30am 3.2 0.0 0.9 85 0.9 WNW 7 9 4 5 1019.3 1019.3 0.0
14/02:00am 3.7 0.8 1.3 84 0.9 WNW 6 7 3 4 1019.4 1019.4 0.0
14/01:30am 4.5 0.4 2.0 84 1.0 WNW 13 13 7 7 1019.9 1019.9 0.0
14/01:00am 4.7 1.0 2.1 83 1.1 WNW 11 13 6 7 1020.1 1020.1 0.0
14/12:30am 4.6 0.8 1.6 81 1.2 W 11 11 6 6 1020.3 1020.3 0.0
14/12:00am 5.2 1.4 2.0 80 1.3 W 11 13 6 7 1020.3 1020.3 0.0
 
Date/Time
EST
Temp
°C
App
Temp
°C
Dew
Point
°C
Rel
Hum
%
Delta-T
°C
Wind Press
QNH
hPa
Press
MSL
hPa
Rain since
9am
mm
Dir  Spd
km/h
Gust
km/h
Spd
kts
Gust
kts
13/11:30pm 5.8 2.1 2.3 78 1.5 WSW 11 13 6 7 1020.8 1020.8 0.0
13/11:00pm 5.9 2.2 2.4 78 1.5 W 11 13 6 7 1021.4 1021.3 0.0
13/10:30pm 6.2 2.4 1.9 74 1.8 W 11 13 6 7 1021.2 1021.1 0.0
13/10:00pm 8.2 3.7 2.2 66 2.5 WSW 15 17 8 9 1021.0 1020.9 0.0
13/09:30pm 7.5 3.4 2.2 69 2.2 WSW 13 13 7 7 1021.3 1021.2 0.0
13/09:00pm 8.2 4.1 2.2 66 2.5 WSW 13 17 7 9 1021.3 1021.2 0.0
13/08:30pm 8.6 4.1 2.2 64 2.7 W 15 15 8 8 1021.2 1021.1 0.0
13/08:00pm 9.8 4.9 1.7 57 3.4 WSW 17 19 9 10 1020.8 1020.8 0.0
13/07:30pm 10.3 5.4 1.9 56 3.6 WSW 17 22 9 12 1020.5 1020.5 0.0
13/07:00pm 10.3 5.4 2.2 57 3.5 WSW 17 20 9 11 1020.2 1020.2 0.0
13/06:30pm 11.6 6.6 1.3 49 4.4 WSW 17 20 9 11 1019.6 1019.6 0.0
13/06:00pm 12.4 7.0 1.1 46 4.9 WSW 19 26 10 14 1019.3 1019.3 0.0
13/05:30pm 12.7 7.2 0.8 44 5.1 WSW 19 22 10 12 1019.0 1018.9 0.0
13/05:00pm 13.4 7.9 0.8 42 5.4 WSW 19 26 10 14 1018.4 1018.3 0.0
13/04:30pm 14.3 7.5 0.9 40 5.8 WSW 26 35 14 19 1018.0 1017.9 0.0
13/04:00pm 15.0 7.9 1.5 40 6.0 WSW 28 39 15 21 1018.0 1017.9 0.0
13/03:30pm 15.3 7.3 0.7 37 6.4 WSW 32 41 17 22 1017.6 1017.6 0.0
13/03:00pm 15.5 8.0 1.3 38 6.3 WSW 30 43 16 23 1017.5 1017.5 0.0
13/02:30pm 15.9 9.2 1.6 38 6.4 WSW 26 35 14 19 1017.4 1017.4 0.0
13/02:00pm 16.2 8.9 2.2 39 6.4 W 30 37 16 20 1017.5 1017.5 0.0
13/01:30pm 16.0 9.0 1.7 38 6.4 W 28 35 15 19 1017.5 1017.5 0.0
13/01:00pm 16.0 9.3 1.7 38 6.4 WSW 26 33 14 18 1017.7 1017.7 0.0
13/12:30pm 15.8 10.3 3.9 45 5.6 WSW 22 35 12 19 1018.0 1017.9 0.0
13/12:00pm 16.0 11.3 5.0 48 5.3 WSW 19 30 10 16 1018.4 1018.3 0.0
13/11:30am 14.3 9.1 3.5 48 5.0 WSW 20 24 11 13 1018.9 1018.8 0.0
13/11:00am 14.4 8.7 4.7 52 4.6 WSW 24 32 13 17 1019.2 1019.2 0.0
13/10:30am 14.3 10.2 4.6 52 4.6 SW 15 20 8 11 1019.7 1019.7 0.0
13/10:00am 13.9 10.5 5.8 58 3.9 SSW 13 17 7 9 1019.9 1019.9 0.0
13/09:30am 12.6 9.6 6.0 64 3.2 SW 11 15 6 8 1020.0 1020.0 0.0
13/09:00am 11.3 8.0 6.2 71 2.4 WSW 13 17 7 9 1020.2 1020.2 1.4
13/08:30am 10.6 7.2 6.0 73 2.2 W 13 15 7 8 1020.0 1020.0 1.4
13/08:00am 10.0 8.0 7.1 82 1.4 WNW 7 9 4 5 1019.7 1019.7 1.4
13/07:30am 8.4 6.4 6.4 87 0.9 WNW 6 9 3 5 1019.3 1019.3 1.4
13/07:00am 8.1 5.5 6.1 87 0.9 W 9 11 5 6 1018.9 1018.8 1.4
13/06:30am 7.9 5.7 5.5 85 1.1 NNW 6 9 3 5 1018.6 1018.5 1.4
13/06:00am 8.1 5.9 5.4 83 1.2 N 6 9 3 5 1018.2 1018.1 1.4
13/05:30am 8.8 7.9 6.1 83 1.3 CALM 0 0 0 0 1017.9 1017.8 1.4
13/05:00am 9.4 7.8 6.5 82 1.4 NNE 4 7 2 4 1017.7 1017.7 1.4
13/04:30am 10.4 8.2 6.2 75 2.0 SW 7 9 4 5 1017.3 1017.3 1.4
13/04:00am 10.8 7.9 6.6 75 2.0 SW 11 13 6 7 1017.4 1017.4 1.4
13/03:30am 11.0 8.5 6.7 75 2.1 SW 9 9 5 5 1017.6 1017.6 1.4
13/03:00am 11.1 8.6 6.6 74 2.2 SW 9 11 5 6 1017.5 1017.5 1.4
13/02:30am 11.5 8.6 6.6 72 2.4 SW 11 15 6 8 1017.7 1017.7 1.4
13/02:00am 11.7 9.0 7.2 74 2.2 SSW 11 13 6 7 1017.7 1017.7 1.4
13/01:30am 11.8 8.7 7.1 73 2.3 SSW 13 15 7 8 1018.0 1017.9 1.4
13/01:00am 12.2 8.3 7.3 72 2.4 SSW 17 20 9 11 1018.2 1018.1 1.4
13/12:30am 12.6 8.9 8.1 74 2.3 SSW 17 20 9 11 1018.0 1017.9 1.4
13/12:00am 13.0 9.1 8.5 74 2.3 SSW 19 24 10 13 1018.0 1017.9 1.4
 
Date/Time
EST
Temp
°C
App
Temp
°C
Dew
Point
°C
Rel
Hum
%
Delta-T
°C
Wind Press
QNH
hPa
Press
MSL
hPa
Rain since
9am
mm
Dir  Spd
km/h
Gust
km/h
Spd
kts
Gust
kts
12/11:30pm 13.4 10.9 10.9 85 1.3 WSW 15 19 8 10 1018.1 1018.0 1.4
12/11:00pm 13.0 10.9 11.2 89 1.0 W 13 17 7 9 1018.0 1017.9 1.4
12/10:30pm 12.9 11.9 11.0 88 1.0 W 7 9 4 5 1017.9 1017.8 1.4
12/10:00pm 13.0 13.4 11.1 88 1.0 CALM 0 0 0 0 1017.7 1017.7 1.4
12/09:30pm 13.3 12.6 11.4 88 1.0 NW 6 6 3 3 1017.5 1017.5 1.4
12/09:00pm 13.4 12.5 11.5 88 1.0 NW 7 7 4 4 1017.5 1017.5 1.4
12/08:30pm 13.5 12.6 11.4 87 1.1 NNW 7 9 4 5 1017.5 1017.5 1.4
12/08:00pm 14.1 13.5 11.8 86 1.3 WNW 6 9 3 5 1017.5 1017.5 1.4
12/07:30pm 14.3 13.5 11.8 85 1.4 NNW 7 9 4 5 1017.2 1017.2 1.4
12/07:00pm 14.7 14.0 12.0 84 1.5 NNW 7 9 4 5 1016.8 1016.8 1.4
12/06:30pm 15.1 14.5 12.4 84 1.5 NW 7 9 4 5 1016.5 1016.4 1.4
12/06:00pm 15.4 14.5 12.5 83 1.6 NW 9 9 5 5 1016.3 1016.2 1.4
12/05:30pm 16.0 14.7 12.6 80 1.9 NW 11 11 6 6 1016.0 1015.9 1.4
12/05:00pm 16.4 15.6 12.8 79 2.0 NNW 9 11 5 6 1015.8 1015.7 1.4
12/04:30pm 16.6 14.1 12.4 76 2.4 W 17 20 9 11 1015.6 1015.5 1.4
12/04:00pm 17.8 15.4 12.5 71 3.0 NNW 17 19 9 10 1015.4 1015.3 1.4
12/03:30pm 17.8 15.3 12.3 70 3.1 N 17 22 9 12 1015.2 1015.1 1.4
12/03:00pm 18.1 15.6 12.3 69 3.3 NNW 17 22 9 12 1015.3 1015.2 1.4
12/02:30pm 18.4 16.5 11.7 65 3.7 NNW 13 19 7 10 1015.5 1015.4 1.4
12/02:00pm 17.9 16.9 12.4 70 3.1 NW 9 17 5 9 1015.4 1015.3 1.4
12/01:30pm 17.7 15.8 11.7 68 3.3 NNW 13 19 7 10 1015.5 1015.4 1.4
12/01:00pm 17.0 14.6 12.5 75 2.5 NNW 17 22 9 12 1015.8 1015.7 1.4
12/12:30pm 16.6 14.6 12.6 77 2.2 N 15 19 8 10 1016.1 1016.0 1.4
12/12:00pm 16.5 14.3 13.2 81 1.9 NNW 17 22 9 12 1016.4 1016.3 1.4
12/11:30am 16.0 14.1 13.1 83 1.6 NNW 15 20 8 11 1016.6 1016.5 1.4
12/11:00am 15.6 13.7 13.1 85 1.4 NW 15 19 8 10 1017.1 1017.1 1.4
12/10:30am 15.2 13.7 13.1 87 1.2 N 13 15 7 8 1017.3 1017.3 1.2
12/10:00am 14.9 13.8 13.1 89 1.0 NNW 11 17 6 9 1017.4 1017.4 1.2
12/09:30am 14.7 14.5 12.9 89 1.0 N 6 9 3 5 1017.2 1017.2 0.8
12/09:00am 14.5 14.1 12.9 90 0.9 W 7 9 4 5 1017.3 1017.3 8.8
12/08:30am 14.3 15.1 12.7 90 0.9 CALM 0 0 0 0 1017.1 1017.1 8.8
12/08:00am 14.0 13.4 12.4 90 0.9 ENE 7 9 4 5 1016.8 1016.8 8.8
12/07:30am 13.9 14.2 12.3 90 0.9 NW 2 7 1 4 1016.8 1016.8 8.2
12/07:00am 13.7 14.4 12.1 90 0.9 CALM 0 0 0 0 1016.7 1016.7 8.0
12/06:30am 13.7 13.0 12.1 90 0.9 NE 7 9 4 5 1016.4 1016.3 7.8
12/06:00am 14.0 13.4 12.4 90 0.9 E 7 9 4 5 1016.0 1015.9 7.6
12/05:30am 14.0 13.6 12.4 90 0.9 ENE 6 13 3 7 1015.7 1015.6 7.4
12/05:00am 14.2 13.3 12.6 90 0.9 NE 9 11 5 6 1015.8 1015.7 7.2
12/04:30am 14.3 14.8 12.7 90 0.9 SSW 2 6 1 3 1015.9 1015.8 6.8
12/04:00am 14.4 14.9 12.8 90 0.9 SSW 2 11 1 6 1016.2 1016.1 6.6
12/03:30am 14.0 14.8 12.4 90 0.9 CALM 0 0 0 0 1016.2 1016.1 6.6
12/03:00am 14.1 13.7 12.5 90 0.9 E 6 7 3 4 1016.2 1016.1 6.6
12/02:30am 14.4 13.9 12.8 90 0.9 ENE 7 9 4 5 1016.3 1016.2 6.6
12/02:00am 14.5 14.3 12.9 90 0.9 ESE 6 6 3 3 1016.5 1016.4 6.6
12/01:30am 14.5 15.0 12.9 90 0.9 WNW 2 6 1 3 1016.8 1016.8 6.4
12/01:00am 14.7 14.9 12.9 89 1.0 NW 4 7 2 4 1017.4 1017.4 5.4
12/12:30am 14.7 15.6 12.9 89 1.0 CALM 0 0 0 0 1017.7 1017.7 5.0
12/12:00am 14.6 13.8 12.8 89 1.0 NW 9 13 5 7 1018.1 1018.0 4.4
 
Date/Time
EST
Temp
°C
App
Temp
°C
Dew
Point
°C
Rel
Hum
%
Delta-T
°C
Wind Press
QNH
hPa
Press
MSL
hPa
Rain since
9am
mm
Dir  Spd
km/h
Gust
km/h
Spd
kts
Gust
kts
11/11:30pm 14.5 13.6 12.7 89 1.0 NE 9 11 5 6 1018.2 1018.1 2.4
11/11:00pm 14.7 15.6 12.9 89 1.0 CALM 0 0 0 0 1018.2 1018.1 2.4
11/10:30pm 14.7 15.5 12.7 88 1.1 CALM 0 0 0 0 1018.2 1018.1 2.4
11/10:00pm 14.6 15.4 12.6 88 1.1 CALM 0 0 0 0 1018.3 1018.2 2.4
11/09:30pm 14.6 14.3 12.6 88 1.1 NE 6 9 3 5 1018.3 1018.2 2.0
11/09:00pm 14.6 13.7 12.6 88 1.1 NE 9 11 5 6 1018.3 1018.2 1.8
11/08:30pm 14.8 13.9 12.7 87 1.2 NE 9 11 5 6 1018.2 1018.1 1.8
11/08:00pm 15.2 16.1 12.9 86 1.3 CALM 0 0 0 0 1018.2 1018.1 1.8
11/07:30pm 15.3 14.9 13.0 86 1.3 SSE 7 11 4 6 1018.1 1018.0 1.0
11/07:00pm 15.3 15.4 12.6 84 1.5 S 4 7 2 4 1017.9 1017.8 1.0
11/06:30pm 15.8 14.4 13.3 85 1.4 SSW 13 19 7 10 1017.6 1017.6 1.0
11/06:00pm 15.8 13.0 13.1 84 1.5 SW 20 26 11 14 1017.5 1017.5 1.0
11/05:30pm 16.8 11.5 12.5 76 2.4 SW 32 43 17 23 1016.9 1016.9 0.0
11/05:17pm 19.1 15.9 9.9 55 5.0 NW 17 43 9 23 1016.7 1016.7 0.0
11/05:00pm 21.1 18.3 8.4 44 6.8 N 13 15 7 8 1016.3 1016.2 0.0
11/04:30pm 21.6 18.8 8.5 43 7.0 NNW 13 17 7 9 1016.2 1016.1 0.0
11/04:00pm 22.3 20.1 9.5 44 7.0 NNW 11 15 6 8 1016.1 1016.0 0.0
11/03:30pm 21.8 19.5 9.0 44 6.9 NNW 11 19 6 10 1016.2 1016.1 0.0
11/03:00pm 22.6 19.7 9.7 44 7.1 NW 15 24 8 13 1016.4 1016.3 0.0
11/02:30pm 22.4 18.5 8.5 41 7.5 WNW 19 30 10 16 1016.7 1016.7 0.0
11/02:00pm 22.8 18.6 8.1 39 7.9 NNW 20 30 11 16 1017.0 1017.0 0.0
11/01:30pm 23.1 18.8 8.0 38 8.1 NNW 20 30 11 16 1017.4 1017.4 0.0
11/01:00pm 22.5 18.4 8.6 41 7.5 NNW 20 30 11 16 1017.6 1017.6 0.0
11/12:30pm 21.1 16.6 8.7 45 6.6 NNW 22 33 12 18 1018.2 1018.1 0.0
11/12:00pm 21.4 17.0 9.0 45 6.7 NNW 22 30 12 16 1018.7 1018.6 0.0

Other formats

Comma delimited format used in spreadsheet applications
http://www.bom.gov.au/fwo/IDQ60801/IDQ60801.94542.axf

JavaScript Object Notation format (JSON) in row-major order
http://www.bom.gov.au/fwo/IDQ60801/IDQ60801.94542.json

Data quality

Most of these data are generated automatically and are frequently updated. Quality checks on data are not normally performed. It is possible for incorrect values to appear. Refer to information at About Latest Weather Observations and please check the disclaimer before using these data.